sensor_id;sensor_type;location;lat;lon;timestamp;P1;durP1;ratioP1;P2;durP2;ratioP2
19599;SDS011;9947;57.722;12.012;2023-02-01T00:00:48;20.13;;;3.43;;
19599;SDS011;9947;57.722;12.012;2023-02-01T00:03:22;18.77;;;3.47;;
19599;SDS011;9947;57.722;12.012;2023-02-01T00:05:56;18.83;;;3.70;;
19599;SDS011;9947;57.722;12.012;2023-02-01T00:08:29;20.87;;;3.47;;
19599;SDS011;9947;57.722;12.012;2023-02-01T00:11:02;19.33;;;3.73;;
19599;SDS011;9947;57.722;12.012;2023-02-01T00:13:33;19.83;;;3.20;;
19599;SDS011;9947;57.722;12.012;2023-02-01T00:16:08;18.50;;;3.53;;
19599;SDS011;9947;57.722;12.012;2023-02-01T00:18:43;15.93;;;3.23;;
19599;SDS011;9947;57.722;12.012;2023-02-01T00:21:19;14.50;;;3.07;;
19599;SDS011;9947;57.722;12.012;2023-02-01T00:23:46;12.97;;;3.10;;
19599;SDS011;9947;57.722;12.012;2023-02-01T00:26:20;25.23;;;3.70;;
19599;SDS011;9947;57.722;12.012;2023-02-01T00:28:51;16.77;;;4.20;;
19599;SDS011;9947;57.722;12.012;2023-02-01T00:31:32;17.13;;;3.40;;
19599;SDS011;9947;57.722;12.012;2023-02-01T00:34:06;18.63;;;3.33;;
19599;SDS011;9947;57.722;12.012;2023-02-01T00:36:41;14.13;;;2.80;;
19599;SDS011;9947;57.722;12.012;2023-02-01T00:39:16;21.27;;;3.80;;
19599;SDS011;9947;57.722;12.012;2023-02-01T00:41:43;15.47;;;2.90;;
19599;SDS011;9947;57.722;12.012;2023-02-01T00:44:10;16.63;;;3.83;;
19599;SDS011;9947;57.722;12.012;2023-02-01T00:46:43;12.03;;;3.87;;
19599;SDS011;9947;57.722;12.012;2023-02-01T00:49:09;27.53;;;4.40;;
19599;SDS011;9947;57.722;12.012;2023-02-01T00:51:44;20.27;;;3.37;;
19599;SDS011;9947;57.722;12.012;2023-02-01T00:54:18;22.93;;;3.70;;
19599;SDS011;9947;57.722;12.012;2023-02-01T00:56:51;16.83;;;3.20;;
19599;SDS011;9947;57.722;12.012;2023-02-01T00:59:30;25.03;;;5.60;;
19599;SDS011;9947;57.722;12.012;2023-02-01T01:01:57;17.90;;;4.20;;
19599;SDS011;9947;57.722;12.012;2023-02-01T01:04:31;21.33;;;3.83;;
19599;SDS011;9947;57.722;12.012;2023-02-01T01:07:05;12.43;;;3.60;;
19599;SDS011;9947;57.722;12.012;2023-02-01T01:09:39;19.47;;;3.40;;
19599;SDS011;9947;57.722;12.012;2023-02-01T01:12:13;19.77;;;3.43;;
19599;SDS011;9947;57.722;12.012;2023-02-01T01:14:46;16.93;;;3.07;;
19599;SDS011;9947;57.722;12.012;2023-02-01T01:17:20;18.83;;;3.53;;
19599;SDS011;9947;57.722;12.012;2023-02-01T01:19:46;16.53;;;3.73;;
19599;SDS011;9947;57.722;12.012;2023-02-01T01:22:21;16.37;;;3.67;;
19599;SDS011;9947;57.722;12.012;2023-02-01T01:25:03;17.97;;;3.73;;
19599;SDS011;9947;57.722;12.012;2023-02-01T01:27:37;22.47;;;3.97;;
19599;SDS011;9947;57.722;12.012;2023-02-01T01:30:10;27.27;;;4.33;;
19599;SDS011;9947;57.722;12.012;2023-02-01T01:32:51;12.53;;;3.27;;
19599;SDS011;9947;57.722;12.012;2023-02-01T01:35:25;18.20;;;3.47;;
19599;SDS011;9947;57.722;12.012;2023-02-01T01:37:53;21.40;;;3.67;;
19599;SDS011;9947;57.722;12.012;2023-02-01T01:40:27;28.73;;;4.50;;
19599;SDS011;9947;57.722;12.012;2023-02-01T01:42:54;21.83;;;3.50;;
19599;SDS011;9947;57.722;12.012;2023-02-01T01:45:28;22.00;;;3.97;;
19599;SDS011;9947;57.722;12.012;2023-02-01T01:48:03;19.07;;;3.40;;
19599;SDS011;9947;57.722;12.012;2023-02-01T01:50:34;19.07;;;3.80;;
19599;SDS011;9947;57.722;12.012;2023-02-01T01:53:19;20.17;;;3.83;;
19599;SDS011;9947;57.722;12.012;2023-02-01T01:55:56;15.53;;;3.47;;
19599;SDS011;9947;57.722;12.012;2023-02-01T01:58:36;12.90;;;3.23;;
19599;SDS011;9947;57.722;12.012;2023-02-01T02:01:10;24.57;;;4.40;;
19599;SDS011;9947;57.722;12.012;2023-02-01T02:03:37;12.97;;;3.60;;
19599;SDS011;9947;57.722;12.012;2023-02-01T02:06:16;16.83;;;3.13;;
19599;SDS011;9947;57.722;12.012;2023-02-01T02:08:52;18.23;;;3.47;;
19599;SDS011;9947;57.722;12.012;2023-02-01T02:11:26;29.63;;;3.60;;
19599;SDS011;9947;57.722;12.012;2023-02-01T02:13:53;17.47;;;3.83;;
19599;SDS011;9947;57.722;12.012;2023-02-01T02:16:37;17.27;;;3.30;;
19599;SDS011;9947;57.722;12.012;2023-02-01T02:19:27;24.00;;;3.87;;
19599;SDS011;9947;57.722;12.012;2023-02-01T02:22:17;25.50;;;4.30;;
19599;SDS011;9947;57.722;12.012;2023-02-01T02:25:26;30.00;;;4.67;;
19599;SDS011;9947;57.722;12.012;2023-02-01T02:28:20;19.60;;;4.17;;
19599;SDS011;9947;57.722;12.012;2023-02-01T02:31:16;23.20;;;4.27;;
19599;SDS011;9947;57.722;12.012;2023-02-01T02:34:12;26.77;;;4.17;;
19599;SDS011;9947;57.722;12.012;2023-02-01T02:36:47;22.67;;;4.27;;
19599;SDS011;9947;57.722;12.012;2023-02-01T02:39:32;24.47;;;4.43;;
19599;SDS011;9947;57.722;12.012;2023-02-01T02:42:16;27.57;;;4.20;;
19599;SDS011;9947;57.722;12.012;2023-02-01T02:45:09;20.90;;;3.73;;
19599;SDS011;9947;57.722;12.012;2023-02-01T02:48:08;22.67;;;3.93;;
19599;SDS011;9947;57.722;12.012;2023-02-01T02:50:46;22.87;;;4.47;;
19599;SDS011;9947;57.722;12.012;2023-02-01T02:53:45;22.53;;;4.10;;
19599;SDS011;9947;57.722;12.012;2023-02-01T02:56:41;18.47;;;3.93;;
19599;SDS011;9947;57.722;12.012;2023-02-01T02:59:39;20.93;;;3.77;;
19599;SDS011;9947;57.722;12.012;2023-02-01T03:02:33;20.03;;;4.30;;
19599;SDS011;9947;57.722;12.012;2023-02-01T03:05:25;25.10;;;4.80;;
19599;SDS011;9947;57.722;12.012;2023-02-01T03:08:04;25.80;;;4.70;;
19599;SDS011;9947;57.722;12.012;2023-02-01T03:10:51;33.50;;;4.27;;
19599;SDS011;9947;57.722;12.012;2023-02-01T03:13:27;29.80;;;4.93;;
19599;SDS011;9947;57.722;12.012;2023-02-01T03:16:08;25.63;;;5.40;;
19599;SDS011;9947;57.722;12.012;2023-02-01T03:18:48;24.43;;;5.03;;
19599;SDS011;9947;57.722;12.012;2023-02-01T03:21:26;27.97;;;4.30;;
19599;SDS011;9947;57.722;12.012;2023-02-01T03:23:59;30.33;;;6.03;;
19599;SDS011;9947;57.722;12.012;2023-02-01T03:26:36;30.27;;;4.77;;
19599;SDS011;9947;57.722;12.012;2023-02-01T03:29:08;22.03;;;4.53;;
19599;SDS011;9947;57.722;12.012;2023-02-01T03:31:55;36.30;;;5.50;;
19599;SDS011;9947;57.722;12.012;2023-02-01T03:34:29;39.20;;;5.30;;
19599;SDS011;9947;57.722;12.012;2023-02-01T03:36:56;29.63;;;5.53;;
19599;SDS011;9947;57.722;12.012;2023-02-01T03:39:38;30.63;;;5.33;;
19599;SDS011;9947;57.722;12.012;2023-02-01T03:42:12;34.93;;;5.77;;
19599;SDS011;9947;57.722;12.012;2023-02-01T03:44:49;32.60;;;5.30;;
19599;SDS011;9947;57.722;12.012;2023-02-01T03:47:27;39.30;;;6.13;;
19599;SDS011;9947;57.722;12.012;2023-02-01T03:50:06;40.10;;;6.10;;
19599;SDS011;9947;57.722;12.012;2023-02-01T03:52:38;29.77;;;5.50;;
19599;SDS011;9947;57.722;12.012;2023-02-01T03:55:15;35.53;;;5.57;;
19599;SDS011;9947;57.722;12.012;2023-02-01T03:57:46;35.37;;;5.63;;
19599;SDS011;9947;57.722;12.012;2023-02-01T04:00:25;36.63;;;5.33;;
19599;SDS011;9947;57.722;12.012;2023-02-01T04:02:59;24.87;;;5.53;;
19599;SDS011;9947;57.722;12.012;2023-02-01T04:05:26;25.20;;;5.53;;
19599;SDS011;9947;57.722;12.012;2023-02-01T04:08:00;30.03;;;5.57;;
19599;SDS011;9947;57.722;12.012;2023-02-01T04:10:34;33.50;;;6.03;;
19599;SDS011;9947;57.722;12.012;2023-02-01T04:13:09;28.33;;;5.07;;
19599;SDS011;9947;57.722;12.012;2023-02-01T04:15:42;21.43;;;4.70;;
19599;SDS011;9947;57.722;12.012;2023-02-01T04:18:09;28.77;;;5.17;;
19599;SDS011;9947;57.722;12.012;2023-02-01T04:20:49;25.37;;;5.67;;
19599;SDS011;9947;57.722;12.012;2023-02-01T04:23:23;26.30;;;4.50;;
19599;SDS011;9947;57.722;12.012;2023-02-01T04:26:01;28.70;;;5.00;;
19599;SDS011;9947;57.722;12.012;2023-02-01T04:28:29;30.53;;;5.43;;
19599;SDS011;9947;57.722;12.012;2023-02-01T04:31:03;26.23;;;5.60;;
19599;SDS011;9947;57.722;12.012;2023-02-01T04:33:30;35.80;;;5.67;;
19599;SDS011;9947;57.722;12.012;2023-02-01T04:36:04;24.50;;;4.97;;
19599;SDS011;9947;57.722;12.012;2023-02-01T04:38:31;34.33;;;5.13;;
19599;SDS011;9947;57.722;12.012;2023-02-01T04:41:06;36.83;;;5.40;;
19599;SDS011;9947;57.722;12.012;2023-02-01T04:43:33;23.20;;;5.07;;
19599;SDS011;9947;57.722;12.012;2023-02-01T04:46:07;35.23;;;5.17;;
19599;SDS011;9947;57.722;12.012;2023-02-01T04:48:41;26.07;;;5.00;;
19599;SDS011;9947;57.722;12.012;2023-02-01T04:51:15;32.07;;;5.73;;
19599;SDS011;9947;57.722;12.012;2023-02-01T04:53:48;30.67;;;4.90;;
19599;SDS011;9947;57.722;12.012;2023-02-01T04:56:16;32.97;;;5.13;;
19599;SDS011;9947;57.722;12.012;2023-02-01T04:58:50;24.47;;;5.00;;
19599;SDS011;9947;57.722;12.012;2023-02-01T05:01:27;34.80;;;5.73;;
19599;SDS011;9947;57.722;12.012;2023-02-01T05:03:54;30.53;;;5.97;;
19599;SDS011;9947;57.722;12.012;2023-02-01T05:06:28;30.63;;;5.43;;
19599;SDS011;9947;57.722;12.012;2023-02-01T05:08:55;29.33;;;5.27;;
19599;SDS011;9947;57.722;12.012;2023-02-01T05:11:29;41.27;;;6.30;;
19599;SDS011;9947;57.722;12.012;2023-02-01T05:14:20;32.97;;;5.67;;
19599;SDS011;9947;57.722;12.012;2023-02-01T05:16:47;30.93;;;5.67;;
19599;SDS011;9947;57.722;12.012;2023-02-01T05:19:21;27.40;;;5.33;;
19599;SDS011;9947;57.722;12.012;2023-02-01T05:21:48;30.40;;;5.63;;
19599;SDS011;9947;57.722;12.012;2023-02-01T05:24:21;38.80;;;5.60;;
19599;SDS011;9947;57.722;12.012;2023-02-01T05:26:56;36.37;;;5.40;;
19599;SDS011;9947;57.722;12.012;2023-02-01T05:29:30;31.40;;;5.00;;
19599;SDS011;9947;57.722;12.012;2023-02-01T05:32:04;39.23;;;6.53;;
19599;SDS011;9947;57.722;12.012;2023-02-01T05:34:37;26.93;;;5.43;;
19599;SDS011;9947;57.722;12.012;2023-02-01T05:37:04;31.37;;;5.53;;
19599;SDS011;9947;57.722;12.012;2023-02-01T05:39:45;29.90;;;5.40;;
19599;SDS011;9947;57.722;12.012;2023-02-01T05:42:19;30.90;;;4.93;;
19599;SDS011;9947;57.722;12.012;2023-02-01T05:44:46;33.53;;;5.40;;
19599;SDS011;9947;57.722;12.012;2023-02-01T05:47:13;28.60;;;5.70;;
19599;SDS011;9947;57.722;12.012;2023-02-01T05:49:47;31.63;;;5.27;;
19599;SDS011;9947;57.722;12.012;2023-02-01T05:52:14;30.87;;;5.03;;
19599;SDS011;9947;57.722;12.012;2023-02-01T05:54:47;29.57;;;5.13;;
19599;SDS011;9947;57.722;12.012;2023-02-01T05:57:22;30.23;;;5.30;;
19599;SDS011;9947;57.722;12.012;2023-02-01T06:00:03;28.30;;;4.90;;
19599;SDS011;9947;57.722;12.012;2023-02-01T06:02:30;24.13;;;4.23;;
19599;SDS011;9947;57.722;12.012;2023-02-01T06:05:04;22.13;;;4.53;;
19599;SDS011;9947;57.722;12.012;2023-02-01T06:07:32;27.10;;;4.23;;
19599;SDS011;9947;57.722;12.012;2023-02-01T06:10:05;22.53;;;4.50;;
19599;SDS011;9947;57.722;12.012;2023-02-01T06:12:34;27.03;;;4.87;;
19599;SDS011;9947;57.722;12.012;2023-02-01T06:15:08;29.60;;;4.50;;
19599;SDS011;9947;57.722;12.012;2023-02-01T06:17:37;32.63;;;5.97;;
19599;SDS011;9947;57.722;12.012;2023-02-01T06:20:18;30.33;;;5.00;;
19599;SDS011;9947;57.722;12.012;2023-02-01T06:22:45;22.90;;;4.93;;
19599;SDS011;9947;57.722;12.012;2023-02-01T06:25:19;19.43;;;4.73;;
19599;SDS011;9947;57.722;12.012;2023-02-01T06:27:47;25.70;;;4.80;;
19599;SDS011;9947;57.722;12.012;2023-02-01T06:30:22;24.00;;;4.83;;
19599;SDS011;9947;57.722;12.012;2023-02-01T06:32:55;33.80;;;6.30;;
19599;SDS011;9947;57.722;12.012;2023-02-01T06:35:29;41.43;;;5.63;;
19599;SDS011;9947;57.722;12.012;2023-02-01T06:38:02;38.00;;;6.33;;
19599;SDS011;9947;57.722;12.012;2023-02-01T06:40:35;31.47;;;5.63;;
19599;SDS011;9947;57.722;12.012;2023-02-01T06:43:03;33.13;;;5.73;;
19599;SDS011;9947;57.722;12.012;2023-02-01T06:45:37;30.10;;;4.77;;
19599;SDS011;9947;57.722;12.012;2023-02-01T06:48:10;22.83;;;5.37;;
19599;SDS011;9947;57.722;12.012;2023-02-01T06:50:43;33.43;;;4.90;;
19599;SDS011;9947;57.722;12.012;2023-02-01T06:53:10;24.67;;;4.60;;
19599;SDS011;9947;57.722;12.012;2023-02-01T06:55:50;24.83;;;4.67;;
19599;SDS011;9947;57.722;12.012;2023-02-01T06:58:19;20.40;;;4.27;;
19599;SDS011;9947;57.722;12.012;2023-02-01T07:00:53;19.53;;;4.07;;
19599;SDS011;9947;57.722;12.012;2023-02-01T07:03:19;23.93;;;4.50;;
19599;SDS011;9947;57.722;12.012;2023-02-01T07:05:55;24.60;;;3.90;;
19599;SDS011;9947;57.722;12.012;2023-02-01T07:08:23;20.97;;;4.83;;
19599;SDS011;9947;57.722;12.012;2023-02-01T07:11:00;20.23;;;4.30;;
19599;SDS011;9947;57.722;12.012;2023-02-01T07:13:29;21.17;;;4.13;;
19599;SDS011;9947;57.722;12.012;2023-02-01T07:16:03;22.30;;;4.03;;
19599;SDS011;9947;57.722;12.012;2023-02-01T07:18:32;21.20;;;5.20;;
19599;SDS011;9947;57.722;12.012;2023-02-01T07:21:12;25.77;;;4.60;;
19599;SDS011;9947;57.722;12.012;2023-02-01T07:23:40;24.73;;;4.97;;
19599;SDS011;9947;57.722;12.012;2023-02-01T07:26:13;17.77;;;4.73;;
19599;SDS011;9947;57.722;12.012;2023-02-01T07:28:42;27.00;;;4.30;;
19599;SDS011;9947;57.722;12.012;2023-02-01T07:31:16;22.50;;;3.80;;
19599;SDS011;9947;57.722;12.012;2023-02-01T07:33:46;19.60;;;4.07;;
19599;SDS011;9947;57.722;12.012;2023-02-01T07:36:22;21.90;;;4.07;;
19599;SDS011;9947;57.722;12.012;2023-02-01T07:38:57;18.87;;;4.00;;
19599;SDS011;9947;57.722;12.012;2023-02-01T07:41:30;18.50;;;3.50;;
19599;SDS011;9947;57.722;12.012;2023-02-01T07:43:58;25.03;;;4.20;;
19599;SDS011;9947;57.722;12.012;2023-02-01T07:46:32;16.70;;;5.20;;
19599;SDS011;9947;57.722;12.012;2023-02-01T07:48:59;18.07;;;3.60;;
19599;SDS011;9947;57.722;12.012;2023-02-01T07:51:32;18.73;;;4.47;;
19599;SDS011;9947;57.722;12.012;2023-02-01T07:54:05;22.83;;;3.30;;
19599;SDS011;9947;57.722;12.012;2023-02-01T07:56:39;18.90;;;3.83;;
19599;SDS011;9947;57.722;12.012;2023-02-01T07:59:07;18.53;;;4.20;;
19599;SDS011;9947;57.722;12.012;2023-02-01T08:01:41;17.17;;;3.73;;
19599;SDS011;9947;57.722;12.012;2023-02-01T08:04:14;29.97;;;4.00;;
19599;SDS011;9947;57.722;12.012;2023-02-01T08:06:47;24.63;;;3.73;;
19599;SDS011;9947;57.722;12.012;2023-02-01T08:09:21;26.30;;;4.63;;
19599;SDS011;9947;57.722;12.012;2023-02-01T08:11:56;20.83;;;4.30;;
19599;SDS011;9947;57.722;12.012;2023-02-01T08:14:31;19.90;;;3.60;;
19599;SDS011;9947;57.722;12.012;2023-02-01T08:17:06;16.63;;;3.77;;
19599;SDS011;9947;57.722;12.012;2023-02-01T08:19:39;18.37;;;3.63;;
19599;SDS011;9947;57.722;12.012;2023-02-01T08:22:06;18.97;;;3.67;;
19599;SDS011;9947;57.722;12.012;2023-02-01T08:24:39;31.00;;;5.10;;
19599;SDS011;9947;57.722;12.012;2023-02-01T08:27:13;15.87;;;3.10;;
19599;SDS011;9947;57.722;12.012;2023-02-01T08:29:41;21.33;;;4.53;;
19599;SDS011;9947;57.722;12.012;2023-02-01T08:32:15;26.80;;;4.50;;
19599;SDS011;9947;57.722;12.012;2023-02-01T08:34:41;24.37;;;4.43;;
19599;SDS011;9947;57.722;12.012;2023-02-01T08:37:15;22.27;;;4.50;;
19599;SDS011;9947;57.722;12.012;2023-02-01T08:39:42;21.73;;;4.20;;
19599;SDS011;9947;57.722;12.012;2023-02-01T08:42:16;19.93;;;3.83;;
19599;SDS011;9947;57.722;12.012;2023-02-01T08:45:09;20.93;;;3.53;;
19599;SDS011;9947;57.722;12.012;2023-02-01T08:47:36;17.57;;;4.40;;
19599;SDS011;9947;57.722;12.012;2023-02-01T08:50:12;16.70;;;3.73;;
19599;SDS011;9947;57.722;12.012;2023-02-01T08:52:46;23.77;;;4.50;;
19599;SDS011;9947;57.722;12.012;2023-02-01T08:55:13;21.13;;;4.40;;
19599;SDS011;9947;57.722;12.012;2023-02-01T08:57:47;23.13;;;4.00;;
19599;SDS011;9947;57.722;12.012;2023-02-01T09:00:16;28.10;;;4.70;;
19599;SDS011;9947;57.722;12.012;2023-02-01T09:02:56;21.80;;;3.80;;
19599;SDS011;9947;57.722;12.012;2023-02-01T09:05:30;22.67;;;4.60;;
19599;SDS011;9947;57.722;12.012;2023-02-01T09:08:03;24.93;;;4.50;;
19599;SDS011;9947;57.722;12.012;2023-02-01T09:10:30;28.53;;;4.90;;
19599;SDS011;9947;57.722;12.012;2023-02-01T09:13:04;29.00;;;4.73;;
19599;SDS011;9947;57.722;12.012;2023-02-01T09:15:32;36.17;;;5.50;;
19599;SDS011;9947;57.722;12.012;2023-02-01T09:18:06;37.67;;;5.27;;
19599;SDS011;9947;57.722;12.012;2023-02-01T09:20:33;23.53;;;4.93;;
19599;SDS011;9947;57.722;12.012;2023-02-01T09:23:06;25.33;;;4.40;;
19599;SDS011;9947;57.722;12.012;2023-02-01T09:25:39;29.30;;;5.00;;
19599;SDS011;9947;57.722;12.012;2023-02-01T09:28:06;22.27;;;5.50;;
19599;SDS011;9947;57.722;12.012;2023-02-01T09:30:40;41.30;;;5.00;;
19599;SDS011;9947;57.722;12.012;2023-02-01T09:33:20;31.03;;;5.93;;
19599;SDS011;9947;57.722;12.012;2023-02-01T09:35:57;28.63;;;5.50;;
19599;SDS011;9947;57.722;12.012;2023-02-01T09:38:25;34.60;;;5.23;;
19599;SDS011;9947;57.722;12.012;2023-02-01T09:40:59;29.80;;;5.50;;
19599;SDS011;9947;57.722;12.012;2023-02-01T09:43:36;34.40;;;5.17;;
19599;SDS011;9947;57.722;12.012;2023-02-01T09:46:27;31.93;;;5.63;;
19599;SDS011;9947;57.722;12.012;2023-02-01T09:48:56;26.37;;;4.80;;
19599;SDS011;9947;57.722;12.012;2023-02-01T09:51:41;30.63;;;5.60;;
19599;SDS011;9947;57.722;12.012;2023-02-01T09:54:18;24.03;;;4.70;;
19599;SDS011;9947;57.722;12.012;2023-02-01T09:56:56;22.80;;;4.50;;
19599;SDS011;9947;57.722;12.012;2023-02-01T09:59:29;24.83;;;4.80;;
19599;SDS011;9947;57.722;12.012;2023-02-01T10:02:14;23.10;;;4.90;;
19599;SDS011;9947;57.722;12.012;2023-02-01T10:04:53;33.23;;;5.57;;
19599;SDS011;9947;57.722;12.012;2023-02-01T10:07:30;26.47;;;5.47;;
19599;SDS011;9947;57.722;12.012;2023-02-01T10:10:11;30.53;;;5.40;;
19599;SDS011;9947;57.722;12.012;2023-02-01T10:13:04;33.77;;;5.83;;
19599;SDS011;9947;57.722;12.012;2023-02-01T10:15:43;28.43;;;4.70;;
19599;SDS011;9947;57.722;12.012;2023-02-01T10:18:27;20.47;;;4.13;;
19599;SDS011;9947;57.722;12.012;2023-02-01T10:21:13;32.67;;;6.10;;
19599;SDS011;9947;57.722;12.012;2023-02-01T10:27:01;30.93;;;4.37;;
19599;SDS011;9947;57.722;12.012;2023-02-01T10:29:34;34.73;;;5.50;;
19599;SDS011;9947;57.722;12.012;2023-02-01T10:32:13;38.73;;;6.50;;
19599;SDS011;9947;57.722;12.012;2023-02-01T10:34:51;31.77;;;6.10;;
19599;SDS011;9947;57.722;12.012;2023-02-01T10:37:27;28.30;;;5.30;;
19599;SDS011;9947;57.722;12.012;2023-02-01T10:40:16;36.10;;;5.23;;
19599;SDS011;9947;57.722;12.012;2023-02-01T10:42:46;30.57;;;5.23;;
19599;SDS011;9947;57.722;12.012;2023-02-01T10:45:23;30.27;;;4.73;;
19599;SDS011;9947;57.722;12.012;2023-02-01T10:47:53;30.03;;;4.53;;
19599;SDS011;9947;57.722;12.012;2023-02-01T10:50:33;37.83;;;5.43;;
19599;SDS011;9947;57.722;12.012;2023-02-01T10:53:10;27.90;;;5.47;;
19599;SDS011;9947;57.722;12.012;2023-02-01T10:55:41;36.43;;;5.77;;
19599;SDS011;9947;57.722;12.012;2023-02-01T10:58:28;30.53;;;5.10;;
19599;SDS011;9947;57.722;12.012;2023-02-01T11:00:57;29.83;;;5.60;;
19599;SDS011;9947;57.722;12.012;2023-02-01T11:03:34;34.27;;;6.17;;
19599;SDS011;9947;57.722;12.012;2023-02-01T11:06:18;38.17;;;5.27;;
19599;SDS011;9947;57.722;12.012;2023-02-01T11:08:50;37.40;;;6.87;;
19599;SDS011;9947;57.722;12.012;2023-02-01T11:11:25;31.87;;;5.30;;
19599;SDS011;9947;57.722;12.012;2023-02-01T11:14:00;29.60;;;5.33;;
19599;SDS011;9947;57.722;12.012;2023-02-01T11:16:46;28.03;;;5.83;;
19599;SDS011;9947;57.722;12.012;2023-02-01T11:19:15;27.90;;;5.40;;
19599;SDS011;9947;57.722;12.012;2023-02-01T11:21:50;36.37;;;6.30;;
19599;SDS011;9947;57.722;12.012;2023-02-01T11:24:20;43.07;;;6.67;;
19599;SDS011;9947;57.722;12.012;2023-02-01T11:26:56;28.53;;;5.50;;
19599;SDS011;9947;57.722;12.012;2023-02-01T11:29:24;34.03;;;6.20;;
19599;SDS011;9947;57.722;12.012;2023-02-01T11:32:02;38.33;;;6.77;;
19599;SDS011;9947;57.722;12.012;2023-02-01T11:34:31;41.87;;;6.83;;
19599;SDS011;9947;57.722;12.012;2023-02-01T11:37:16;33.03;;;6.13;;
19599;SDS011;9947;57.722;12.012;2023-02-01T11:39:52;38.53;;;6.93;;
19599;SDS011;9947;57.722;12.012;2023-02-01T11:42:27;36.80;;;7.00;;
19599;SDS011;9947;57.722;12.012;2023-02-01T11:48:07;34.00;;;6.80;;
19599;SDS011;9947;57.722;12.012;2023-02-01T11:50:44;33.93;;;5.77;;
19599;SDS011;9947;57.722;12.012;2023-02-01T11:53:31;35.27;;;5.70;;
19599;SDS011;9947;57.722;12.012;2023-02-01T11:56:17;32.93;;;6.03;;
19599;SDS011;9947;57.722;12.012;2023-02-01T12:02:11;23.10;;;4.67;;
19599;SDS011;9947;57.722;12.012;2023-02-01T12:05:14;18.53;;;4.80;;
19599;SDS011;9947;57.722;12.012;2023-02-01T12:11:06;28.90;;;4.90;;
19599;SDS011;9947;57.722;12.012;2023-02-01T12:13:55;22.43;;;4.87;;
19599;SDS011;9947;57.722;12.012;2023-02-01T12:16:41;22.63;;;4.23;;
19599;SDS011;9947;57.722;12.012;2023-02-01T12:19:23;37.73;;;6.40;;
19599;SDS011;9947;57.722;12.012;2023-02-01T12:22:14;26.93;;;4.90;;
19599;SDS011;9947;57.722;12.012;2023-02-01T12:25:09;21.77;;;4.43;;
19599;SDS011;9947;57.722;12.012;2023-02-01T12:27:50;31.40;;;4.90;;
19599;SDS011;9947;57.722;12.012;2023-02-01T12:33:55;25.90;;;5.57;;
19599;SDS011;9947;57.722;12.012;2023-02-01T12:36:49;39.40;;;5.60;;
19599;SDS011;9947;57.722;12.012;2023-02-01T12:39:32;33.03;;;4.93;;
19599;SDS011;9947;57.722;12.012;2023-02-01T12:42:09;26.40;;;5.10;;
19599;SDS011;9947;57.722;12.012;2023-02-01T12:44:52;22.33;;;4.50;;
19599;SDS011;9947;57.722;12.012;2023-02-01T12:47:24;29.50;;;5.23;;
19599;SDS011;9947;57.722;12.012;2023-02-01T12:50:02;33.23;;;5.40;;
19599;SDS011;9947;57.722;12.012;2023-02-01T12:52:39;32.50;;;5.47;;
19599;SDS011;9947;57.722;12.012;2023-02-01T12:55:19;23.60;;;5.00;;
19599;SDS011;9947;57.722;12.012;2023-02-01T12:57:52;37.20;;;6.07;;
19599;SDS011;9947;57.722;12.012;2023-02-01T13:00:30;26.77;;;5.13;;
19599;SDS011;9947;57.722;12.012;2023-02-01T13:03:10;28.67;;;5.33;;
19599;SDS011;9947;57.722;12.012;2023-02-01T13:05:46;28.27;;;5.87;;
19599;SDS011;9947;57.722;12.012;2023-02-01T13:08:29;41.50;;;5.97;;
19599;SDS011;9947;57.722;12.012;2023-02-01T13:11:08;35.43;;;6.47;;
19599;SDS011;9947;57.722;12.012;2023-02-01T13:13:49;38.33;;;6.63;;
19599;SDS011;9947;57.722;12.012;2023-02-01T13:16:26;40.90;;;6.03;;
19599;SDS011;9947;57.722;12.012;2023-02-01T13:19:06;40.93;;;6.93;;
19599;SDS011;9947;57.722;12.012;2023-02-01T13:21:47;26.43;;;5.73;;
19599;SDS011;9947;57.722;12.012;2023-02-01T13:24:24;36.80;;;5.70;;
19599;SDS011;9947;57.722;12.012;2023-02-01T13:27:11;36.80;;;6.53;;
19599;SDS011;9947;57.722;12.012;2023-02-01T13:29:40;40.60;;;7.03;;
19599;SDS011;9947;57.722;12.012;2023-02-01T13:32:25;40.00;;;6.53;;
19599;SDS011;9947;57.722;12.012;2023-02-01T13:41:37;45.73;;;7.03;;
19599;SDS011;9947;57.722;12.012;2023-02-01T13:44:16;43.63;;;7.30;;
19599;SDS011;9947;57.722;12.012;2023-02-01T13:46:50;42.37;;;7.23;;
19599;SDS011;9947;57.722;12.012;2023-02-01T13:49:29;45.63;;;7.30;;
19599;SDS011;9947;57.722;12.012;2023-02-01T13:51:59;53.43;;;9.20;;
19599;SDS011;9947;57.722;12.012;2023-02-01T13:54:34;50.87;;;7.73;;
19599;SDS011;9947;57.722;12.012;2023-02-01T13:57:14;42.80;;;6.97;;
19599;SDS011;9947;57.722;12.012;2023-02-01T14:00:08;41.37;;;6.97;;
19599;SDS011;9947;57.722;12.012;2023-02-01T14:15:24;38.80;;;6.60;;
19599;SDS011;9947;57.722;12.012;2023-02-01T14:17:52;45.37;;;7.03;;
19599;SDS011;9947;57.722;12.012;2023-02-01T14:23:22;40.93;;;6.83;;
19599;SDS011;9947;57.722;12.012;2023-02-01T14:29:01;43.30;;;6.73;;
19599;SDS011;9947;57.722;12.012;2023-02-01T14:31:40;44.77;;;7.10;;
19599;SDS011;9947;57.722;12.012;2023-02-01T14:34:12;32.60;;;7.60;;
19599;SDS011;9947;57.722;12.012;2023-02-01T14:36:51;35.53;;;7.87;;
19599;SDS011;9947;57.722;12.012;2023-02-01T14:39:34;41.20;;;6.77;;
19599;SDS011;9947;57.722;12.012;2023-02-01T14:42:14;49.57;;;6.60;;
19599;SDS011;9947;57.722;12.012;2023-02-01T14:44:52;41.50;;;6.30;;
19599;SDS011;9947;57.722;12.012;2023-02-01T14:47:31;34.90;;;6.80;;
19599;SDS011;9947;57.722;12.012;2023-02-01T14:50:18;35.20;;;5.77;;
19599;SDS011;9947;57.722;12.012;2023-02-01T14:53:16;39.97;;;6.57;;
19599;SDS011;9947;57.722;12.012;2023-02-01T14:55:50;28.63;;;5.97;;
19599;SDS011;9947;57.722;12.012;2023-02-01T14:58:35;30.27;;;5.27;;
19599;SDS011;9947;57.722;12.012;2023-02-01T15:01:13;27.00;;;4.63;;
19599;SDS011;9947;57.722;12.012;2023-02-01T15:03:52;18.93;;;4.23;;
19599;SDS011;9947;57.722;12.012;2023-02-01T15:06:32;17.40;;;3.40;;
19599;SDS011;9947;57.722;12.012;2023-02-01T15:09:07;15.20;;;3.47;;
19599;SDS011;9947;57.722;12.012;2023-02-01T15:11:58;15.20;;;3.67;;
19599;SDS011;9947;57.722;12.012;2023-02-01T15:14:34;16.83;;;4.13;;
19599;SDS011;9947;57.722;12.012;2023-02-01T15:17:18;18.70;;;4.40;;
19599;SDS011;9947;57.722;12.012;2023-02-01T15:19:52;10.27;;;2.43;;
19599;SDS011;9947;57.722;12.012;2023-02-01T15:22:26;11.57;;;3.87;;
19599;SDS011;9947;57.722;12.012;2023-02-01T15:25:01;13.47;;;3.53;;
19599;SDS011;9947;57.722;12.012;2023-02-01T15:27:30;16.60;;;3.37;;
19599;SDS011;9947;57.722;12.012;2023-02-01T15:30:16;13.60;;;4.23;;
19599;SDS011;9947;57.722;12.012;2023-02-01T15:32:44;28.23;;;5.97;;
19599;SDS011;9947;57.722;12.012;2023-02-01T15:35:37;30.13;;;6.60;;
19599;SDS011;9947;57.722;12.012;2023-02-01T15:38:25;26.77;;;5.40;;
19599;SDS011;9947;57.722;12.012;2023-02-01T15:41:11;20.40;;;5.53;;
19599;SDS011;9947;57.722;12.012;2023-02-01T15:43:47;20.30;;;4.80;;
19599;SDS011;9947;57.722;12.012;2023-02-01T15:46:39;10.00;;;3.00;;
19599;SDS011;9947;57.722;12.012;2023-02-01T15:49:17;9.83;;;2.77;;
19599;SDS011;9947;57.722;12.012;2023-02-01T15:51:55;11.33;;;2.50;;
19599;SDS011;9947;57.722;12.012;2023-02-01T15:54:25;7.67;;;2.40;;
19599;SDS011;9947;57.722;12.012;2023-02-01T15:57:01;8.37;;;2.87;;
19599;SDS011;9947;57.722;12.012;2023-02-01T15:59:40;14.90;;;2.10;;
19599;SDS011;9947;57.722;12.012;2023-02-01T16:02:27;6.70;;;1.60;;
19599;SDS011;9947;57.722;12.012;2023-02-01T16:05:25;7.70;;;1.90;;
19599;SDS011;9947;57.722;12.012;2023-02-01T16:08:06;4.03;;;1.60;;
19599;SDS011;9947;57.722;12.012;2023-02-01T16:10:46;3.53;;;1.70;;